createdAt,value
2022-10-01T00:03:11.557Z,11.10
2022-10-01T00:08:16.923Z,11.10
2022-10-01T00:13:19.217Z,11.20
2022-10-01T00:18:21.036Z,11.20
2022-10-01T00:23:22.871Z,11.20
2022-10-01T00:28:24.884Z,11.20
2022-10-01T00:33:26.733Z,11.00
2022-10-01T00:38:29.257Z,11.00
2022-10-01T00:43:37.864Z,10.90
2022-10-01T00:49:02.625Z,10.90
2022-10-01T00:54:12.953Z,10.80
2022-10-01T00:59:16.475Z,10.70
2022-10-01T01:04:18.410Z,10.90
2022-10-01T01:09:21.334Z,10.80
2022-10-01T01:14:36.779Z,10.80
2022-10-01T01:19:58.943Z,10.70
2022-10-01T01:25:21.688Z,10.80
2022-10-01T01:30:23.577Z,11.00
2022-10-01T01:35:33.944Z,11.10
2022-10-01T01:40:37.869Z,10.90
2022-10-01T01:45:40.998Z,10.90
2022-10-01T01:50:57.864Z,11.00
2022-10-01T01:56:00.466Z,10.90
2022-10-01T02:01:02.730Z,10.80
2022-10-01T02:06:07.522Z,10.70
2022-10-01T02:11:29.465Z,10.60
2022-10-01T02:16:52.701Z,10.60
2022-10-01T02:22:04.832Z,10.60
2022-10-01T02:27:36.632Z,10.60
2022-10-01T02:32:41.691Z,10.50
2022-10-01T02:37:45.820Z,10.50
2022-10-01T02:42:51.948Z,10.50
2022-10-01T02:48:00.475Z,10.60
2022-10-01T02:53:07.033Z,10.50
2022-10-01T02:58:09.246Z,10.50
2022-10-01T03:03:11.169Z,10.60
2022-10-01T03:08:13.009Z,10.60
2022-10-01T03:13:14.848Z,10.60
2022-10-01T03:18:16.727Z,10.40
2022-10-01T03:23:18.557Z,10.30
2022-10-01T03:28:20.419Z,10.30
2022-10-01T03:33:22.249Z,10.30
2022-10-01T03:38:24.093Z,10.30
2022-10-01T03:43:29.118Z,10.30
2022-10-01T03:48:30.949Z,10.30
2022-10-01T03:53:33.148Z,10.50
2022-10-01T03:58:34.978Z,10.60
2022-10-01T04:03:36.803Z,10.50
2022-10-01T04:08:39.489Z,10.40
2022-10-01T04:13:41.333Z,10.30
2022-10-01T04:18:43.424Z,10.30
2022-10-01T04:23:45.541Z,10.40
2022-10-01T04:28:47.595Z,10.60
2022-10-01T04:33:49.503Z,10.60
2022-10-01T04:39:00.868Z,10.50
2022-10-01T04:44:04.226Z,10.60
2022-10-01T04:49:06.129Z,10.30
2022-10-01T04:54:07.955Z,10.10
2022-10-01T04:59:09.758Z,10.10
2022-10-01T05:04:11.935Z,10.30
2022-10-01T05:09:13.780Z,10.50
2022-10-01T05:14:16.077Z,10.40
2022-10-01T05:19:17.877Z,10.40
2022-10-01T05:24:19.884Z,10.20
2022-10-01T05:29:22.324Z,10.30
2022-10-01T05:34:24.138Z,10.50
2022-10-01T05:39:25.956Z,10.60
2022-10-01T05:44:27.779Z,10.70
2022-10-01T05:49:29.578Z,10.80
2022-10-01T05:54:32.263Z,10.90
2022-10-01T05:59:37.276Z,11.00
2022-10-01T06:04:41.190Z,11.00
2022-10-01T06:09:43.170Z,11.00
2022-10-01T06:14:44.975Z,10.80
2022-10-01T06:19:46.775Z,10.80
2022-10-01T06:24:48.604Z,11.00
2022-10-01T06:29:51.440Z,11.10
2022-10-01T06:34:53.237Z,11.10
2022-10-01T06:39:55.068Z,11.10
2022-10-01T06:44:56.891Z,11.20
2022-10-01T06:49:59.426Z,11.30
2022-10-01T06:55:01.565Z,11.20
2022-10-01T07:00:04.092Z,11.40
2022-10-01T07:05:08.095Z,11.60
2022-10-01T07:10:14.109Z,11.80
2022-10-01T07:15:19.474Z,11.70
2022-10-01T07:20:22.523Z,11.80
2022-10-01T07:25:25.583Z,11.90
2022-10-01T07:30:28.865Z,11.90
2022-10-01T07:35:32.269Z,11.90
2022-10-01T07:40:35.714Z,11.70
2022-10-01T07:45:38.549Z,11.90
2022-10-01T07:50:43.068Z,11.90
2022-10-01T07:55:46.154Z,12.00
2022-10-01T08:00:50.543Z,12.10
2022-10-01T08:05:54.101Z,11.90
2022-10-01T08:11:00.178Z,11.80
2022-10-01T08:16:05.226Z,11.70
2022-10-01T08:21:09.158Z,11.90
2022-10-01T08:26:12.119Z,12.00
2022-10-01T08:31:14.931Z,11.90
2022-10-01T08:36:18.150Z,11.90
2022-10-01T08:41:23.374Z,12.10
2022-10-01T08:46:32.223Z,12.20
2022-10-01T08:51:49.595Z,12.20
2022-10-01T08:56:55.348Z,12.20
2022-10-01T09:01:59.481Z,12.10
2022-10-01T09:07:28.326Z,12.10
2022-10-01T09:12:40.299Z,12.20
2022-10-01T09:17:56.895Z,12.40
2022-10-01T09:23:06.068Z,12.40
2022-10-01T09:28:20.593Z,12.50
2022-10-01T09:33:36.143Z,12.60
2022-10-01T09:38:53.157Z,12.80
2022-10-01T09:43:57.614Z,13.20
2022-10-01T09:49:10.132Z,13.10
2022-10-01T09:54:17.960Z,13.30
2022-10-01T09:59:50.132Z,13.70
2022-10-01T10:05:03.683Z,14.00
2022-10-01T10:10:23.420Z,14.00
2022-10-01T10:15:33.383Z,14.00
2022-10-01T10:20:45.760Z,14.10
2022-10-01T10:26:03.102Z,13.90
2022-10-01T10:31:15.494Z,13.60
2022-10-01T10:36:20.269Z,13.60
2022-10-01T10:41:26.956Z,13.40
2022-10-01T10:46:36.499Z,13.40
2022-10-01T10:51:56.618Z,13.40
2022-10-01T10:57:02.722Z,13.60
2022-10-01T11:02:14.831Z,13.70
2022-10-01T11:07:23.028Z,13.60
2022-10-01T11:12:50.401Z,13.50
2022-10-01T11:18:12.454Z,13.50
2022-10-01T11:23:46.563Z,13.70
2022-10-01T11:29:14.570Z,14.10
2022-10-01T11:34:38.134Z,13.70
2022-10-01T11:39:43.617Z,14.00
2022-10-01T11:45:00.829Z,13.80
2022-10-01T11:50:22.385Z,14.10
2022-10-01T11:55:51.400Z,13.90
2022-10-01T12:01:02.591Z,14.10
2022-10-01T12:06:09.697Z,14.30
2022-10-01T12:11:18.099Z,14.30
2022-10-01T12:16:50.714Z,14.20
2022-10-01T12:22:15.735Z,13.90
2022-10-01T12:27:57.989Z,13.80
2022-10-01T12:33:25.309Z,13.90
2022-10-01T12:38:57.523Z,14.10
2022-10-01T12:44:18.332Z,13.90
2022-10-01T12:49:29.731Z,13.90
2022-10-01T12:55:05.601Z,14.20
2022-10-01T13:00:22.417Z,14.20
2022-10-01T13:05:43.760Z,14.30
2022-10-01T13:11:32.847Z,14.30
2022-10-01T13:16:58.473Z,14.20
2022-10-01T13:22:33.039Z,14.30
2022-10-01T13:27:46.298Z,14.50
2022-10-01T13:33:23.052Z,14.10
2022-10-01T13:38:47.885Z,13.80
2022-10-01T13:43:57.003Z,13.60
2022-10-01T13:49:27.559Z,13.60
2022-10-01T13:54:44.390Z,13.60
2022-10-01T13:59:46.774Z,13.70
2022-10-01T14:04:50.697Z,13.70
2022-10-01T14:09:59.347Z,13.40
2022-10-01T14:15:41.890Z,13.50
2022-10-01T14:21:18.759Z,13.40
2022-10-01T14:26:42.342Z,13.30
2022-10-01T14:31:51.050Z,13.40
2022-10-01T14:36:55.616Z,13.40
2022-10-01T14:41:58.703Z,13.30
2022-10-01T14:47:11.660Z,13.40
2022-10-01T14:52:29.127Z,13.40
2022-10-01T14:57:36.404Z,13.50
2022-10-01T15:02:50.469Z,13.50
2022-10-01T15:07:53.148Z,13.60
2022-10-01T15:12:56.968Z,13.50
2022-10-01T15:18:00.295Z,13.50
2022-10-01T15:23:06.281Z,13.40
2022-10-01T15:28:24.704Z,13.60
2022-10-01T15:33:33.746Z,13.70
2022-10-01T15:38:36.673Z,13.60
2022-10-01T15:43:39.648Z,13.50
2022-10-01T15:48:42.995Z,13.40
2022-10-01T15:53:45.471Z,13.10
2022-10-01T15:59:10.278Z,13.10
2022-10-01T16:04:14.723Z,13.30
2022-10-01T16:09:25.296Z,13.00
2022-10-01T16:14:44.200Z,12.90
2022-10-01T16:19:52.497Z,12.60
2022-10-01T16:25:00.517Z,12.50
2022-10-01T16:30:12.302Z,12.60
2022-10-01T16:35:20.961Z,12.60
2022-10-01T16:40:26.739Z,12.70
2022-10-01T16:45:35.016Z,12.80
2022-10-01T16:50:37.453Z,12.80
2022-10-01T16:55:40.676Z,12.90
2022-10-01T17:00:43.468Z,12.90
2022-10-01T17:05:45.840Z,12.90
2022-10-01T17:10:53.964Z,12.80
2022-10-01T17:16:00.126Z,12.80
2022-10-01T17:21:03.952Z,12.80
2022-10-01T17:26:08.198Z,12.80
2022-10-01T17:31:17.592Z,12.90
2022-10-01T17:36:21.178Z,12.80
2022-10-01T17:41:24.667Z,12.80
2022-10-01T17:46:27.260Z,12.80
2022-10-01T17:51:29.984Z,12.70
2022-10-01T17:56:33.058Z,12.60
2022-10-01T18:01:36.202Z,12.60
2022-10-01T18:06:40.074Z,12.50
2022-10-01T18:11:42.478Z,12.50
2022-10-01T18:16:45.036Z,12.60
2022-10-01T18:21:48.887Z,12.50
2022-10-01T18:26:51.275Z,12.50
2022-10-01T18:32:11.481Z,12.50
2022-10-01T18:37:28.418Z,12.50
2022-10-01T18:42:49.651Z,12.40
2022-10-01T18:48:01.251Z,12.30
2022-10-01T18:53:25.252Z,12.40
2022-10-01T18:58:56.126Z,12.60
2022-10-01T19:04:29.442Z,12.60
2022-10-01T19:09:32.124Z,12.10
2022-10-01T19:15:03.171Z,11.60
2022-10-01T19:20:28.919Z,11.30
2022-10-01T19:25:42.463Z,11.10
2022-10-01T19:31:02.876Z,11.00
2022-10-01T19:36:07.324Z,10.80
2022-10-01T19:41:21.127Z,10.60
2022-10-01T19:46:35.304Z,10.50
2022-10-01T19:51:56.564Z,10.50
2022-10-01T19:57:14.731Z,10.40
2022-10-01T20:02:39.952Z,10.40
2022-10-01T20:07:55.650Z,10.30
2022-10-01T20:13:23.126Z,10.20
2022-10-01T20:18:35.498Z,10.20
2022-10-01T20:23:41.406Z,10.20
2022-10-01T20:29:02.512Z,10.10
2022-10-01T20:34:33.789Z,10.10
2022-10-01T20:39:48.759Z,10.10
2022-10-01T20:44:53.420Z,10.10
2022-10-01T20:50:09.411Z,10.10
2022-10-01T20:55:26.755Z,10.10
2022-10-01T21:00:31.537Z,10.10
2022-10-01T21:05:51.105Z,10.10
2022-10-01T21:11:00.833Z,10.10
2022-10-01T21:16:38.550Z,10.10
2022-10-01T21:22:06.330Z,10.00
2022-10-01T21:27:18.071Z,10.10
2022-10-01T21:32:37.724Z,10.00
2022-10-01T21:38:05.417Z,10.00
2022-10-01T21:43:48.085Z,10.10
2022-10-01T21:49:17.970Z,10.10
2022-10-01T21:54:56.271Z,10.10
2022-10-01T22:00:11.183Z,10.00
2022-10-01T22:05:12.964Z,10.00
2022-10-01T22:10:27.372Z,10.00
2022-10-01T22:15:41.879Z,9.90
2022-10-01T22:20:46.774Z,10.00
2022-10-01T22:25:58.743Z,10.00
2022-10-01T22:31:04.532Z,10.00
2022-10-01T22:36:08.363Z,9.90
2022-10-01T22:41:27.559Z,9.90
2022-10-01T22:46:47.772Z,10.00
2022-10-01T22:52:02.118Z,10.00
2022-10-01T22:57:07.412Z,10.10
2022-10-01T23:02:21.165Z,10.10
2022-10-01T23:07:29.023Z,10.10
2022-10-01T23:12:39.572Z,10.10
2022-10-01T23:17:56.388Z,10.10
2022-10-01T23:23:30.824Z,10.10
2022-10-01T23:28:51.329Z,10.10
2022-10-01T23:34:13.345Z,10.10
2022-10-01T23:39:46.826Z,10.00
2022-10-01T23:45:11.912Z,10.10
2022-10-01T23:50:31.035Z,10.10
2022-10-01T23:56:26.308Z,10.10
